sensor_id;sensor_type;location;lat;lon;timestamp;pressure;altitude;pressure_sealevel;temperature;humidity
55914;BME280;58179;48.776;9.124;2023-10-08T00:01:43;98172.19;;;12.22;100.00
55914;BME280;58179;48.776;9.124;2023-10-08T00:04:10;98160.03;;;12.26;100.00
55914;BME280;58179;48.776;9.124;2023-10-08T00:06:44;98158.00;;;12.33;100.00
55914;BME280;58179;48.776;9.124;2023-10-08T00:09:12;98157.88;;;12.40;100.00
55914;BME280;58179;48.776;9.124;2023-10-08T00:11:40;98153.19;;;12.47;100.00
55914;BME280;58179;48.776;9.124;2023-10-08T00:14:07;98152.69;;;12.50;100.00
55914;BME280;58179;48.776;9.124;2023-10-08T00:16:36;98148.69;;;12.48;100.00
55914;BME280;58179;48.776;9.124;2023-10-08T00:19:06;98162.44;;;12.45;100.00
55914;BME280;58179;48.776;9.124;2023-10-08T00:21:37;98158.66;;;12.40;100.00
55914;BME280;58179;48.776;9.124;2023-10-08T00:24:05;98166.88;;;12.39;100.00
55914;BME280;58179;48.776;9.124;2023-10-08T00:26:36;98177.72;;;12.37;100.00
55914;BME280;58179;48.776;9.124;2023-10-08T00:29:07;98173.22;;;12.38;100.00
55914;BME280;58179;48.776;9.124;2023-10-08T00:31:43;98169.53;;;12.39;100.00
55914;BME280;58179;48.776;9.124;2023-10-08T00:34:12;98172.41;;;12.37;100.00
55914;BME280;58179;48.776;9.124;2023-10-08T00:36:40;98166.31;;;12.37;100.00
55914;BME280;58179;48.776;9.124;2023-10-08T00:39:08;98161.81;;;12.37;100.00
55914;BME280;58179;48.776;9.124;2023-10-08T00:41:40;98159.94;;;12.38;100.00
55914;BME280;58179;48.776;9.124;2023-10-08T00:44:08;98155.91;;;12.35;100.00
55914;BME280;58179;48.776;9.124;2023-10-08T00:46:38;98142.88;;;12.34;100.00
55914;BME280;58179;48.776;9.124;2023-10-08T00:49:13;98137.56;;;12.34;100.00
55914;BME280;58179;48.776;9.124;2023-10-08T00:51:51;98137.84;;;12.32;100.00
55914;BME280;58179;48.776;9.124;2023-10-08T00:54:49;98138.88;;;12.31;100.00
55914;BME280;58179;48.776;9.124;2023-10-08T00:57:36;98139.13;;;12.30;100.00
55914;BME280;58179;48.776;9.124;2023-10-08T01:00:05;98135.91;;;12.28;100.00
55914;BME280;58179;48.776;9.124;2023-10-08T01:02:47;98136.94;;;12.27;100.00
55914;BME280;58179;48.776;9.124;2023-10-08T01:05:27;98131.34;;;12.23;100.00
55914;BME280;58179;48.776;9.124;2023-10-08T01:08:09;98128.91;;;12.22;100.00
55914;BME280;58179;48.776;9.124;2023-10-08T01:10:38;98134.47;;;12.20;100.00
55914;BME280;58179;48.776;9.124;2023-10-08T01:13:07;98128.84;;;12.17;100.00
55914;BME280;58179;48.776;9.124;2023-10-08T01:15:40;98134.63;;;12.14;100.00
55914;BME280;58179;48.776;9.124;2023-10-08T01:18:10;98135.66;;;12.13;100.00
55914;BME280;58179;48.776;9.124;2023-10-08T01:20:44;98135.09;;;12.11;100.00
55914;BME280;58179;48.776;9.124;2023-10-08T01:23:14;98121.28;;;12.09;100.00
55914;BME280;58179;48.776;9.124;2023-10-08T01:25:43;98128.13;;;12.05;100.00
55914;BME280;58179;48.776;9.124;2023-10-08T01:28:10;98125.97;;;12.01;100.00
55914;BME280;58179;48.776;9.124;2023-10-08T01:30:55;98133.59;;;11.98;100.00
55914;BME280;58179;48.776;9.124;2023-10-08T01:33:23;98131.66;;;11.93;100.00
55914;BME280;58179;48.776;9.124;2023-10-08T01:35:54;98133.41;;;11.88;100.00
55914;BME280;58179;48.776;9.124;2023-10-08T01:38:22;98136.81;;;11.83;100.00
55914;BME280;58179;48.776;9.124;2023-10-08T01:40:50;98138.06;;;11.81;100.00
55914;BME280;58179;48.776;9.124;2023-10-08T01:43:17;98136.97;;;11.77;100.00
55914;BME280;58179;48.776;9.124;2023-10-08T01:45:44;98136.84;;;11.72;100.00
55914;BME280;58179;48.776;9.124;2023-10-08T01:48:15;98137.09;;;11.70;100.00
55914;BME280;58179;48.776;9.124;2023-10-08T01:50:46;98130.63;;;11.66;100.00
55914;BME280;58179;48.776;9.124;2023-10-08T01:53:13;98131.69;;;11.65;100.00
55914;BME280;58179;48.776;9.124;2023-10-08T01:55:42;98138.03;;;11.64;100.00
55914;BME280;58179;48.776;9.124;2023-10-08T01:58:16;98136.66;;;11.61;100.00
55914;BME280;58179;48.776;9.124;2023-10-08T02:00:43;98142.19;;;11.60;100.00
55914;BME280;58179;48.776;9.124;2023-10-08T02:03:11;98133.44;;;11.59;100.00
55914;BME280;58179;48.776;9.124;2023-10-08T02:05:39;98135.56;;;11.57;100.00
55914;BME280;58179;48.776;9.124;2023-10-08T02:08:08;98130.72;;;11.54;100.00
55914;BME280;58179;48.776;9.124;2023-10-08T02:10:34;98130.94;;;11.53;100.00
55914;BME280;58179;48.776;9.124;2023-10-08T02:13:03;98133.03;;;11.51;100.00
55914;BME280;58179;48.776;9.124;2023-10-08T02:15:29;98142.28;;;11.48;100.00
55914;BME280;58179;48.776;9.124;2023-10-08T02:17:55;98151.25;;;11.47;100.00
55914;BME280;58179;48.776;9.124;2023-10-08T02:20:22;98151.72;;;11.44;100.00
55914;BME280;58179;48.776;9.124;2023-10-08T02:22:49;98154.88;;;11.41;100.00
55914;BME280;58179;48.776;9.124;2023-10-08T02:25:15;98155.56;;;11.37;100.00
55914;BME280;58179;48.776;9.124;2023-10-08T02:27:41;98149.13;;;11.33;100.00
55914;BME280;58179;48.776;9.124;2023-10-08T02:30:10;98140.84;;;11.29;100.00
55914;BME280;58179;48.776;9.124;2023-10-08T02:32:38;98146.06;;;11.24;100.00
55914;BME280;58179;48.776;9.124;2023-10-08T02:35:08;98142.84;;;11.22;100.00
55914;BME280;58179;48.776;9.124;2023-10-08T02:37:37;98153.34;;;11.17;100.00
55914;BME280;58179;48.776;9.124;2023-10-08T02:40:06;98156.72;;;11.12;100.00
55914;BME280;58179;48.776;9.124;2023-10-08T02:42:40;98160.84;;;11.08;100.00
55914;BME280;58179;48.776;9.124;2023-10-08T02:45:10;98151.53;;;11.06;100.00
55914;BME280;58179;48.776;9.124;2023-10-08T02:47:40;98151.78;;;11.04;100.00
55914;BME280;58179;48.776;9.124;2023-10-08T02:50:08;98149.81;;;11.00;100.00
55914;BME280;58179;48.776;9.124;2023-10-08T02:52:35;98151.88;;;10.98;100.00
55914;BME280;58179;48.776;9.124;2023-10-08T02:55:01;98155.25;;;10.93;100.00
55914;BME280;58179;48.776;9.124;2023-10-08T02:57:27;98150.41;;;10.90;100.00
55914;BME280;58179;48.776;9.124;2023-10-08T02:59:55;98152.50;;;10.88;100.00
55914;BME280;58179;48.776;9.124;2023-10-08T03:02:23;98138.38;;;10.82;100.00
55914;BME280;58179;48.776;9.124;2023-10-08T03:04:52;98138.00;;;10.79;100.00
55914;BME280;58179;48.776;9.124;2023-10-08T03:07:19;98140.88;;;10.77;100.00
55914;BME280;58179;48.776;9.124;2023-10-08T03:09:49;98138.47;;;10.76;100.00
55914;BME280;58179;48.776;9.124;2023-10-08T03:12:16;98139.53;;;10.75;100.00
55914;BME280;58179;48.776;9.124;2023-10-08T03:14:43;98132.84;;;10.72;100.00
55914;BME280;58179;48.776;9.124;2023-10-08T03:17:30;98131.81;;;10.73;100.00
55914;BME280;58179;48.776;9.124;2023-10-08T03:19:56;98132.28;;;10.70;100.00
55914;BME280;58179;48.776;9.124;2023-10-08T03:22:42;98130.44;;;10.71;100.00
55914;BME280;58179;48.776;9.124;2023-10-08T03:25:12;98123.28;;;10.71;100.00
55914;BME280;58179;48.776;9.124;2023-10-08T03:27:42;98128.00;;;10.69;100.00
55914;BME280;58179;48.776;9.124;2023-10-08T03:30:09;98129.84;;;10.69;100.00
55914;BME280;58179;48.776;9.124;2023-10-08T03:32:43;98130.88;;;10.68;100.00
55914;BME280;58179;48.776;9.124;2023-10-08T03:35:16;98116.06;;;10.67;100.00
55914;BME280;58179;48.776;9.124;2023-10-08T03:37:53;98128.50;;;10.66;100.00
55914;BME280;58179;48.776;9.124;2023-10-08T03:40:20;98133.22;;;10.64;100.00
55914;BME280;58179;48.776;9.124;2023-10-08T03:43:09;98141.16;;;10.64;100.00
55914;BME280;58179;48.776;9.124;2023-10-08T03:45:49;98150.34;;;10.62;100.00
55914;BME280;58179;48.776;9.124;2023-10-08T03:48:26;98154.28;;;10.59;100.00
55914;BME280;58179;48.776;9.124;2023-10-08T03:50:58;98150.84;;;10.59;100.00
55914;BME280;58179;48.776;9.124;2023-10-08T03:53:32;98143.13;;;10.57;100.00
55914;BME280;58179;48.776;9.124;2023-10-08T03:56:03;98155.78;;;10.55;100.00
55914;BME280;58179;48.776;9.124;2023-10-08T03:58:32;98154.38;;;10.53;100.00
55914;BME280;58179;48.776;9.124;2023-10-08T04:01:04;98155.66;;;10.50;100.00
55914;BME280;58179;48.776;9.124;2023-10-08T04:03:37;98162.81;;;10.50;100.00
55914;BME280;58179;48.776;9.124;2023-10-08T04:06:24;98155.91;;;10.48;100.00
55914;BME280;58179;48.776;9.124;2023-10-08T04:09:02;98156.13;;;10.47;100.00
55914;BME280;58179;48.776;9.124;2023-10-08T04:11:42;98151.31;;;10.44;100.00
55914;BME280;58179;48.776;9.124;2023-10-08T04:14:17;98151.53;;;10.42;100.00
55914;BME280;58179;48.776;9.124;2023-10-08T04:16:44;98149.91;;;10.41;100.00
55914;BME280;58179;48.776;9.124;2023-10-08T04:19:12;98149.91;;;10.41;100.00
55914;BME280;58179;48.776;9.124;2023-10-08T04:21:39;98148.66;;;10.44;100.00
55914;BME280;58179;48.776;9.124;2023-10-08T04:24:08;98141.75;;;10.43;100.00
55914;BME280;58179;48.776;9.124;2023-10-08T04:26:35;98136.47;;;10.43;100.00
55914;BME280;58179;48.776;9.124;2023-10-08T04:29:02;98124.59;;;10.45;100.00
55914;BME280;58179;48.776;9.124;2023-10-08T04:31:29;98130.47;;;10.47;100.00
55914;BME280;58179;48.776;9.124;2023-10-08T04:34:13;98129.44;;;10.48;100.00
55914;BME280;58179;48.776;9.124;2023-10-08T04:36:43;98122.06;;;10.51;100.00
55914;BME280;58179;48.776;9.124;2023-10-08T04:39:11;98105.97;;;10.52;100.00
55914;BME280;58179;48.776;9.124;2023-10-08T04:41:47;98113.78;;;10.59;100.00
55914;BME280;58179;48.776;9.124;2023-10-08T04:44:18;98111.22;;;10.64;100.00
55914;BME280;58179;48.776;9.124;2023-10-08T04:46:45;98119.25;;;10.69;100.00
55914;BME280;58179;48.776;9.124;2023-10-08T04:49:12;98117.19;;;10.71;100.00
55914;BME280;58179;48.776;9.124;2023-10-08T04:51:55;98128.81;;;10.70;100.00
55914;BME280;58179;48.776;9.124;2023-10-08T04:54:25;98125.38;;;10.69;100.00
55914;BME280;58179;48.776;9.124;2023-10-08T04:56:56;98137.34;;;10.72;100.00
55914;BME280;58179;48.776;9.124;2023-10-08T04:59:24;98140.56;;;10.74;100.00
55914;BME280;58179;48.776;9.124;2023-10-08T05:01:58;98136.06;;;10.74;100.00
55914;BME280;58179;48.776;9.124;2023-10-08T05:04:45;98133.44;;;10.74;100.00
55914;BME280;58179;48.776;9.124;2023-10-08T05:07:22;98134.47;;;10.73;100.00
55914;BME280;58179;48.776;9.124;2023-10-08T05:10:08;98138.38;;;10.71;100.00
55914;BME280;58179;48.776;9.124;2023-10-08T05:12:34;98142.28;;;10.68;100.00
55914;BME280;58179;48.776;9.124;2023-10-08T05:15:04;98142.53;;;10.67;100.00
55914;BME280;58179;48.776;9.124;2023-10-08T05:17:56;98144.59;;;10.65;100.00
55914;BME280;58179;48.776;9.124;2023-10-08T05:20:25;98147.69;;;10.62;100.00
55914;BME280;58179;48.776;9.124;2023-10-08T05:23:07;98146.91;;;10.61;100.00
55914;BME280;58179;48.776;9.124;2023-10-08T05:25:46;98150.84;;;10.59;100.00
55914;BME280;58179;48.776;9.124;2023-10-08T05:28:35;98144.50;;;10.60;100.00
55914;BME280;58179;48.776;9.124;2023-10-08T05:31:07;98145.75;;;10.57;100.00
55914;BME280;58179;48.776;9.124;2023-10-08T05:33:39;98162.69;;;10.56;100.00
55914;BME280;58179;48.776;9.124;2023-10-08T05:36:25;98161.56;;;10.52;100.00
55914;BME280;58179;48.776;9.124;2023-10-08T05:39:02;98160.97;;;10.50;100.00
55914;BME280;58179;48.776;9.124;2023-10-08T05:41:45;98166.47;;;10.48;100.00
55914;BME280;58179;48.776;9.124;2023-10-08T05:44:17;98163.25;;;10.46;100.00
55914;BME280;58179;48.776;9.124;2023-10-08T05:46:44;98168.00;;;10.44;100.00
55914;BME280;58179;48.776;9.124;2023-10-08T05:49:15;98162.44;;;10.46;100.00
55914;BME280;58179;48.776;9.124;2023-10-08T05:51:43;98167.75;;;10.46;100.00
55914;BME280;58179;48.776;9.124;2023-10-08T05:54:12;98169.94;;;10.49;100.00
55914;BME280;58179;48.776;9.124;2023-10-08T05:56:58;98182.16;;;10.50;100.00
55914;BME280;58179;48.776;9.124;2023-10-08T05:59:50;98172.91;;;10.53;100.00
55914;BME280;58179;48.776;9.124;2023-10-08T06:02:24;98171.44;;;10.57;100.00
55914;BME280;58179;48.776;9.124;2023-10-08T06:04:54;98172.00;;;10.59;100.00
55914;BME280;58179;48.776;9.124;2023-10-08T06:07:41;98175.22;;;10.61;100.00
55914;BME280;58179;48.776;9.124;2023-10-08T06:10:20;98173.16;;;10.63;100.00
55914;BME280;58179;48.776;9.124;2023-10-08T06:12:59;98171.31;;;10.63;100.00
55914;BME280;58179;48.776;9.124;2023-10-08T06:15:28;98172.13;;;10.64;100.00
55914;BME280;58179;48.776;9.124;2023-10-08T06:18:14;98180.28;;;10.62;100.00
55914;BME280;58179;48.776;9.124;2023-10-08T06:20:41;98177.41;;;10.64;100.00
55914;BME280;58179;48.776;9.124;2023-10-08T06:23:11;98173.72;;;10.65;100.00
55914;BME280;58179;48.776;9.124;2023-10-08T06:25:38;98166.59;;;10.65;100.00
55914;BME280;58179;48.776;9.124;2023-10-08T06:28:12;98165.31;;;10.68;100.00
55914;BME280;58179;48.776;9.124;2023-10-08T06:30:39;98156.31;;;10.69;100.00
55914;BME280;58179;48.776;9.124;2023-10-08T06:33:06;98156.69;;;10.72;100.00
55914;BME280;58179;48.776;9.124;2023-10-08T06:35:33;98170.25;;;10.76;100.00
55914;BME280;58179;48.776;9.124;2023-10-08T06:37:59;98172.66;;;10.77;100.00
55914;BME280;58179;48.776;9.124;2023-10-08T06:40:28;98172.44;;;10.79;100.00
55914;BME280;58179;48.776;9.124;2023-10-08T06:43:04;98169.34;;;10.82;100.00
55914;BME280;58179;48.776;9.124;2023-10-08T06:45:39;98166.44;;;10.83;100.00
55914;BME280;58179;48.776;9.124;2023-10-08T06:48:06;98166.22;;;10.85;100.00
55914;BME280;58179;48.776;9.124;2023-10-08T06:50:32;98165.75;;;10.88;100.00
55914;BME280;58179;48.776;9.124;2023-10-08T06:53:00;98165.25;;;10.91;100.00
55914;BME280;58179;48.776;9.124;2023-10-08T06:55:33;98172.53;;;10.96;100.00
55914;BME280;58179;48.776;9.124;2023-10-08T06:58:01;98166.63;;;11.05;100.00
55914;BME280;58179;48.776;9.124;2023-10-08T07:00:31;98157.94;;;11.21;100.00
55914;BME280;58179;48.776;9.124;2023-10-08T07:03:13;98159.13;;;11.42;100.00
55914;BME280;58179;48.776;9.124;2023-10-08T07:05:46;98162.94;;;11.63;100.00
55914;BME280;58179;48.776;9.124;2023-10-08T07:08:21;98164.59;;;11.81;100.00
55914;BME280;58179;48.776;9.124;2023-10-08T07:10:50;98167.03;;;11.99;100.00
55914;BME280;58179;48.776;9.124;2023-10-08T07:13:17;98166.72;;;12.12;100.00
55914;BME280;58179;48.776;9.124;2023-10-08T07:15:48;98185.75;;;12.26;100.00
55914;BME280;58179;48.776;9.124;2023-10-08T07:18:15;98199.28;;;12.41;100.00
55914;BME280;58179;48.776;9.124;2023-10-08T07:20:48;98198.97;;;12.54;100.00
55914;BME280;58179;48.776;9.124;2023-10-08T07:23:20;98195.91;;;12.62;100.00
55914;BME280;58179;48.776;9.124;2023-10-08T07:25:54;98198.31;;;12.86;100.00
55914;BME280;58179;48.776;9.124;2023-10-08T07:28:27;98201.06;;;13.12;100.00
55914;BME280;58179;48.776;9.124;2023-10-08T07:30:55;98201.94;;;13.40;100.00
55914;BME280;58179;48.776;9.124;2023-10-08T07:33:23;98210.22;;;13.65;100.00
55914;BME280;58179;48.776;9.124;2023-10-08T07:35:51;98215.44;;;13.82;100.00
55914;BME280;58179;48.776;9.124;2023-10-08T07:38:25;98208.34;;;13.92;100.00
55914;BME280;58179;48.776;9.124;2023-10-08T07:40:55;98212.41;;;14.00;100.00
55914;BME280;58179;48.776;9.124;2023-10-08T07:43:21;98207.44;;;14.09;100.00
55914;BME280;58179;48.776;9.124;2023-10-08T07:45:47;98201.09;;;14.15;100.00
55914;BME280;58179;48.776;9.124;2023-10-08T07:48:14;98197.97;;;14.23;100.00
55914;BME280;58179;48.776;9.124;2023-10-08T07:50:44;98197.75;;;14.29;100.00
55914;BME280;58179;48.776;9.124;2023-10-08T07:53:12;98203.94;;;14.35;100.00
55914;BME280;58179;48.776;9.124;2023-10-08T07:55:45;98196.25;;;14.39;100.00
55914;BME280;58179;48.776;9.124;2023-10-08T07:58:14;98187.25;;;14.45;100.00
55914;BME280;58179;48.776;9.124;2023-10-08T08:00:41;98181.41;;;14.48;100.00
55914;BME280;58179;48.776;9.124;2023-10-08T08:03:07;98187.31;;;14.55;100.00
55914;BME280;58179;48.776;9.124;2023-10-08T08:05:34;98177.47;;;14.55;100.00
55914;BME280;58179;48.776;9.124;2023-10-08T08:08:00;98178.28;;;14.61;100.00
55914;BME280;58179;48.776;9.124;2023-10-08T08:10:31;98182.09;;;14.70;100.00
55914;BME280;58179;48.776;9.124;2023-10-08T08:13:04;98178.13;;;14.73;100.00
55914;BME280;58179;48.776;9.124;2023-10-08T08:15:36;98180.47;;;14.69;100.00
55914;BME280;58179;48.776;9.124;2023-10-08T08:18:07;98187.38;;;14.65;100.00
55914;BME280;58179;48.776;9.124;2023-10-08T08:20:35;98210.00;;;14.62;100.00
55914;BME280;58179;48.776;9.124;2023-10-08T08:23:05;98225.69;;;14.59;100.00
55914;BME280;58179;48.776;9.124;2023-10-08T08:25:37;98242.78;;;14.58;100.00
55914;BME280;58179;48.776;9.124;2023-10-08T08:28:11;98254.50;;;14.62;100.00
55914;BME280;58179;48.776;9.124;2023-10-08T08:30:44;98258.25;;;14.66;100.00
55914;BME280;58179;48.776;9.124;2023-10-08T08:33:14;98254.84;;;14.70;100.00
55914;BME280;58179;48.776;9.124;2023-10-08T08:35:47;98256.25;;;14.83;100.00
55914;BME280;58179;48.776;9.124;2023-10-08T08:38:22;98264.97;;;15.16;100.00
55914;BME280;58179;48.776;9.124;2023-10-08T08:40:49;98260.84;;;15.45;100.00
55914;BME280;58179;48.776;9.124;2023-10-08T08:43:18;98270.31;;;15.73;100.00
55914;BME280;58179;48.776;9.124;2023-10-08T08:45:46;98266.91;;;15.93;100.00
55914;BME280;58179;48.776;9.124;2023-10-08T08:48:16;98270.16;;;16.20;100.00
55914;BME280;58179;48.776;9.124;2023-10-08T08:50:45;98276.06;;;16.47;100.00
55914;BME280;58179;48.776;9.124;2023-10-08T08:53:12;98285.19;;;16.82;100.00
55914;BME280;58179;48.776;9.124;2023-10-08T08:55:39;98284.31;;;17.12;100.00
55914;BME280;58179;48.776;9.124;2023-10-08T08:58:05;98286.41;;;17.35;100.00
55914;BME280;58179;48.776;9.124;2023-10-08T09:00:37;98281.81;;;17.46;100.00
55914;BME280;58179;48.776;9.124;2023-10-08T09:03:05;98272.19;;;17.39;100.00
55914;BME280;58179;48.776;9.124;2023-10-08T09:05:33;98277.09;;;17.17;100.00
55914;BME280;58179;48.776;9.124;2023-10-08T09:08:02;98267.50;;;16.96;100.00
55914;BME280;58179;48.776;9.124;2023-10-08T09:10:36;98269.34;;;17.00;100.00
55914;BME280;58179;48.776;9.124;2023-10-08T09:13:04;98267.44;;;17.26;100.00
55914;BME280;58179;48.776;9.124;2023-10-08T09:15:31;98267.06;;;17.53;100.00
55914;BME280;58179;48.776;9.124;2023-10-08T09:18:01;98265.91;;;17.79;100.00
55914;BME280;58179;48.776;9.124;2023-10-08T09:20:31;98262.25;;;18.04;100.00
55914;BME280;58179;48.776;9.124;2023-10-08T09:23:08;98258.34;;;18.31;100.00
55914;BME280;58179;48.776;9.124;2023-10-08T09:25:38;98265.31;;;18.71;100.00
55914;BME280;58179;48.776;9.124;2023-10-08T09:28:05;98260.59;;;19.10;100.00
55914;BME280;58179;48.776;9.124;2023-10-08T09:30:35;98255.13;;;19.44;100.00
55914;BME280;58179;48.776;9.124;2023-10-08T09:33:06;98255.50;;;19.61;100.00
55914;BME280;58179;48.776;9.124;2023-10-08T09:35:34;98257.66;;;19.59;100.00
55914;BME280;58179;48.776;9.124;2023-10-08T09:38:03;98255.38;;;19.48;100.00
55914;BME280;58179;48.776;9.124;2023-10-08T09:40:29;98246.22;;;19.25;100.00
55914;BME280;58179;48.776;9.124;2023-10-08T09:42:56;98247.44;;;19.14;100.00
55914;BME280;58179;48.776;9.124;2023-10-08T09:45:22;98257.59;;;19.17;100.00
55914;BME280;58179;48.776;9.124;2023-10-08T09:47:53;98262.03;;;19.26;100.00
55914;BME280;58179;48.776;9.124;2023-10-08T09:50:22;98251.75;;;19.33;100.00
55914;BME280;58179;48.776;9.124;2023-10-08T09:53:00;98243.06;;;19.47;100.00
55914;BME280;58179;48.776;9.124;2023-10-08T09:55:27;98240.75;;;19.78;100.00
55914;BME280;58179;48.776;9.124;2023-10-08T09:57:55;98255.09;;;19.92;100.00
55914;BME280;58179;48.776;9.124;2023-10-08T10:00:22;98255.44;;;19.85;100.00
55914;BME280;58179;48.776;9.124;2023-10-08T10:02:57;98244.59;;;19.71;100.00
55914;BME280;58179;48.776;9.124;2023-10-08T10:05:29;98243.50;;;19.54;100.00
55914;BME280;58179;48.776;9.124;2023-10-08T10:07:58;98239.88;;;19.40;100.00
55914;BME280;58179;48.776;9.124;2023-10-08T10:10:28;98255.31;;;19.29;100.00
55914;BME280;58179;48.776;9.124;2023-10-08T10:12:58;98250.00;;;19.24;100.00
55914;BME280;58179;48.776;9.124;2023-10-08T10:15:25;98248.63;;;19.26;100.00
55914;BME280;58179;48.776;9.124;2023-10-08T10:17:51;98257.09;;;19.39;100.00
55914;BME280;58179;48.776;9.124;2023-10-08T10:20:20;98258.59;;;19.50;100.00
55914;BME280;58179;48.776;9.124;2023-10-08T10:22:46;98266.25;;;19.61;100.00
55914;BME280;58179;48.776;9.124;2023-10-08T10:25:16;98271.25;;;19.68;100.00
55914;BME280;58179;48.776;9.124;2023-10-08T10:28:21;98275.56;;;19.69;100.00
55914;BME280;58179;48.776;9.124;2023-10-08T10:30:48;98269.94;;;19.65;100.00
55914;BME280;58179;48.776;9.124;2023-10-08T10:33:16;98265.44;;;19.61;100.00
55914;BME280;58179;48.776;9.124;2023-10-08T10:35:48;98269.78;;;19.57;100.00
55914;BME280;58179;48.776;9.124;2023-10-08T10:38:19;98266.09;;;19.53;100.00
55914;BME280;58179;48.776;9.124;2023-10-08T10:40:50;98273.91;;;19.49;100.00
55914;BME280;58179;48.776;9.124;2023-10-08T10:43:26;98274.00;;;19.63;100.00
55914;BME280;58179;48.776;9.124;2023-10-08T10:46:00;98266.50;;;20.02;100.00
55914;BME280;58179;48.776;9.124;2023-10-08T10:48:46;98272.16;;;20.57;100.00
55914;BME280;58179;48.776;9.124;2023-10-08T10:51:29;98273.66;;;21.09;100.00
55914;BME280;58179;48.776;9.124;2023-10-08T10:53:57;98270.81;;;21.47;100.00
55914;BME280;58179;48.776;9.124;2023-10-08T10:56:35;98283.69;;;21.63;100.00
55914;BME280;58179;48.776;9.124;2023-10-08T10:59:07;98275.59;;;21.77;100.00
55914;BME280;58179;48.776;9.124;2023-10-08T11:01:49;98277.47;;;21.77;100.00
55914;BME280;58179;48.776;9.124;2023-10-08T11:04:18;98267.41;;;21.69;100.00
55914;BME280;58179;48.776;9.124;2023-10-08T11:06:47;98268.81;;;21.52;100.00
55914;BME280;58179;48.776;9.124;2023-10-08T11:09:16;98268.25;;;21.42;100.00
55914;BME280;58179;48.776;9.124;2023-10-08T11:11:58;98263.59;;;21.15;100.00
55914;BME280;58179;48.776;9.124;2023-10-08T11:14:27;98257.06;;;20.75;100.00
55914;BME280;58179;48.776;9.124;2023-10-08T11:16:54;98262.13;;;20.76;100.00
55914;BME280;58179;48.776;9.124;2023-10-08T11:19:21;98256.53;;;20.59;100.00
55914;BME280;58179;48.776;9.124;2023-10-08T11:21:50;98260.75;;;20.46;100.00
55914;BME280;58179;48.776;9.124;2023-10-08T11:24:28;98259.94;;;20.46;100.00
55914;BME280;58179;48.776;9.124;2023-10-08T11:26:54;98254.66;;;20.41;100.00
55914;BME280;58179;48.776;9.124;2023-10-08T11:29:33;98261.13;;;20.40;100.00
55914;BME280;58179;48.776;9.124;2023-10-08T11:32:00;98248.31;;;20.32;100.00
55914;BME280;58179;48.776;9.124;2023-10-08T11:34:31;98244.09;;;20.26;100.00
55914;BME280;58179;48.776;9.124;2023-10-08T11:37:05;98245.69;;;20.45;100.00
55914;BME280;58179;48.776;9.124;2023-10-08T11:39:45;98240.13;;;20.88;100.00
55914;BME280;58179;48.776;9.124;2023-10-08T11:42:12;98239.00;;;21.21;100.00
55914;BME280;58179;48.776;9.124;2023-10-08T11:44:59;98233.19;;;21.55;100.00
55914;BME280;58179;48.776;9.124;2023-10-08T11:47:26;98229.94;;;21.81;100.00
55914;BME280;58179;48.776;9.124;2023-10-08T11:49:57;98233.94;;;21.97;100.00
55914;BME280;58179;48.776;9.124;2023-10-08T11:52:46;98227.44;;;21.98;100.00
55914;BME280;58179;48.776;9.124;2023-10-08T11:55:13;98217.16;;;22.00;100.00
55914;BME280;58179;48.776;9.124;2023-10-08T11:57:46;98218.03;;;22.09;100.00
55914;BME280;58179;48.776;9.124;2023-10-08T12:00:17;98208.72;;;22.15;100.00
55914;BME280;58179;48.776;9.124;2023-10-08T12:02:45;98211.91;;;22.17;100.00
55914;BME280;58179;48.776;9.124;2023-10-08T12:05:11;98203.50;;;22.19;100.00
55914;BME280;58179;48.776;9.124;2023-10-08T12:07:45;98207.34;;;22.26;100.00
55914;BME280;58179;48.776;9.124;2023-10-08T12:10:11;98204.72;;;22.35;100.00
55914;BME280;58179;48.776;9.124;2023-10-08T12:12:37;98204.78;;;22.44;100.00
55914;BME280;58179;48.776;9.124;2023-10-08T12:15:05;98194.41;;;22.59;100.00
55914;BME280;58179;48.776;9.124;2023-10-08T12:17:35;98200.22;;;23.06;100.00
55914;BME280;58179;48.776;9.124;2023-10-08T12:20:06;98194.84;;;23.80;100.00
55914;BME280;58179;48.776;9.124;2023-10-08T12:22:49;98195.41;;;24.72;100.00
55914;BME280;58179;48.776;9.124;2023-10-08T12:25:15;98194.78;;;25.42;100.00
55914;BME280;58179;48.776;9.124;2023-10-08T12:27:41;98191.31;;;25.92;100.00
55914;BME280;58179;48.776;9.124;2023-10-08T12:30:08;98186.59;;;26.01;89.54
55914;BME280;58179;48.776;9.124;2023-10-08T12:32:38;98186.94;;;25.99;85.67
55914;BME280;58179;48.776;9.124;2023-10-08T12:35:08;98189.47;;;26.16;86.20
55914;BME280;58179;48.776;9.124;2023-10-08T12:37:38;98186.34;;;26.47;87.67
55914;BME280;58179;48.776;9.124;2023-10-08T12:40:06;98190.16;;;26.79;85.44
55914;BME280;58179;48.776;9.124;2023-10-08T12:42:48;98178.56;;;27.27;81.27
55914;BME280;58179;48.776;9.124;2023-10-08T12:45:16;98173.84;;;27.77;78.93
55914;BME280;58179;48.776;9.124;2023-10-08T12:47:48;98171.53;;;28.31;80.89
55914;BME280;58179;48.776;9.124;2023-10-08T12:50:16;98174.94;;;28.71;81.05
55914;BME280;58179;48.776;9.124;2023-10-08T12:52:42;98177.34;;;29.04;73.90
55914;BME280;58179;48.776;9.124;2023-10-08T12:55:13;98163.88;;;28.80;69.54
55914;BME280;58179;48.776;9.124;2023-10-08T12:57:39;98158.44;;;28.08;66.11
55914;BME280;58179;48.776;9.124;2023-10-08T13:00:09;98154.53;;;27.54;70.35
55914;BME280;58179;48.776;9.124;2023-10-08T13:02:35;98148.31;;;27.29;71.07
55914;BME280;58179;48.776;9.124;2023-10-08T13:05:07;98158.25;;;27.49;72.01
55914;BME280;58179;48.776;9.124;2023-10-08T13:07:42;98151.69;;;27.90;69.42
55914;BME280;58179;48.776;9.124;2023-10-08T13:10:09;98132.88;;;28.13;66.22
55914;BME280;58179;48.776;9.124;2023-10-08T13:12:40;98141.00;;;28.53;64.35